sensor_id;sensor_type;location;lat;lon;timestamp;P1;durP1;ratioP1;P2;durP2;ratioP2
23370;SDS011;11858;51.056;3.712;2023-04-15T00:00:06;17.90;;;16.80;;
23370;SDS011;11858;51.056;3.712;2023-04-15T00:02:32;17.25;;;16.15;;
23370;SDS011;11858;51.056;3.712;2023-04-15T00:04:58;17.35;;;16.25;;
23370;SDS011;11858;51.056;3.712;2023-04-15T00:07:24;18.45;;;17.25;;
23370;SDS011;11858;51.056;3.712;2023-04-15T00:09:49;18.65;;;17.45;;
23370;SDS011;11858;51.056;3.712;2023-04-15T00:12:19;17.83;;;16.73;;
23370;SDS011;11858;51.056;3.712;2023-04-15T00:14:45;17.75;;;16.65;;
23370;SDS011;11858;51.056;3.712;2023-04-15T00:17:11;18.20;;;17.00;;
23370;SDS011;11858;51.056;3.712;2023-04-15T00:19:37;17.88;;;16.67;;
23370;SDS011;11858;51.056;3.712;2023-04-15T00:22:03;18.02;;;16.83;;
23370;SDS011;11858;51.056;3.712;2023-04-15T00:24:29;17.05;;;15.95;;
23370;SDS011;11858;51.056;3.712;2023-04-15T00:26:55;17.02;;;15.93;;
23370;SDS011;11858;51.056;3.712;2023-04-15T00:29:22;17.02;;;15.93;;
23370;SDS011;11858;51.056;3.712;2023-04-15T00:31:48;16.75;;;15.65;;
23370;SDS011;11858;51.056;3.712;2023-04-15T00:34:13;15.73;;;14.73;;
23370;SDS011;11858;51.056;3.712;2023-04-15T00:36:39;15.65;;;14.65;;
23370;SDS011;11858;51.056;3.712;2023-04-15T00:39:05;14.77;;;13.88;;
23370;SDS011;11858;51.056;3.712;2023-04-15T00:41:31;13.55;;;12.75;;
23370;SDS011;11858;51.056;3.712;2023-04-15T00:43:58;13.13;;;12.40;;
23370;SDS011;11858;51.056;3.712;2023-04-15T00:46:25;11.95;;;11.25;;
23370;SDS011;11858;51.056;3.712;2023-04-15T00:48:53;11.38;;;10.77;;
23370;SDS011;11858;51.056;3.712;2023-04-15T00:51:19;12.27;;;11.57;;
23370;SDS011;11858;51.056;3.712;2023-04-15T00:53:45;12.70;;;12.00;;
23370;SDS011;11858;51.056;3.712;2023-04-15T00:56:10;12.02;;;11.32;;
23370;SDS011;11858;51.056;3.712;2023-04-15T00:58:37;9.32;;;8.82;;
23370;SDS011;11858;51.056;3.712;2023-04-15T01:01:03;7.60;;;7.20;;
23370;SDS011;11858;51.056;3.712;2023-04-15T01:03:29;7.70;;;7.30;;
23370;SDS011;11858;51.056;3.712;2023-04-15T01:05:55;8.82;;;8.32;;
23370;SDS011;11858;51.056;3.712;2023-04-15T01:08:29;6.30;;;6.00;;
23370;SDS011;11858;51.056;3.712;2023-04-15T01:10:55;6.38;;;6.07;;
23370;SDS011;11858;51.056;3.712;2023-04-15T01:13:22;5.90;;;5.60;;
23370;SDS011;11858;51.056;3.712;2023-04-15T01:15:49;6.32;;;6.03;;
23370;SDS011;11858;51.056;3.712;2023-04-15T01:18:16;6.68;;;6.38;;
23370;SDS011;11858;51.056;3.712;2023-04-15T01:20:42;6.70;;;6.40;;
23370;SDS011;11858;51.056;3.712;2023-04-15T01:23:08;6.40;;;6.10;;
23370;SDS011;11858;51.056;3.712;2023-04-15T01:25:34;5.50;;;5.20;;
23370;SDS011;11858;51.056;3.712;2023-04-15T01:28:01;5.03;;;4.82;;
23370;SDS011;11858;51.056;3.712;2023-04-15T01:30:27;6.10;;;5.80;;
23370;SDS011;11858;51.056;3.712;2023-04-15T01:32:53;4.85;;;4.65;;
23370;SDS011;11858;51.056;3.712;2023-04-15T01:35:19;4.00;;;3.80;;
23370;SDS011;11858;51.056;3.712;2023-04-15T01:37:45;4.47;;;4.28;;
23370;SDS011;11858;51.056;3.712;2023-04-15T01:40:11;4.30;;;4.10;;
23370;SDS011;11858;51.056;3.712;2023-04-15T01:42:38;4.20;;;4.00;;
23370;SDS011;11858;51.056;3.712;2023-04-15T01:45:04;3.40;;;3.30;;
23370;SDS011;11858;51.056;3.712;2023-04-15T01:47:31;3.45;;;3.35;;
23370;SDS011;11858;51.056;3.712;2023-04-15T01:49:57;3.42;;;3.28;;
23370;SDS011;11858;51.056;3.712;2023-04-15T01:52:23;2.65;;;2.55;;
23370;SDS011;11858;51.056;3.712;2023-04-15T01:54:49;2.80;;;2.70;;
23370;SDS011;11858;51.056;3.712;2023-04-15T01:57:15;2.40;;;2.30;;
23370;SDS011;11858;51.056;3.712;2023-04-15T01:59:41;2.40;;;2.30;;
23370;SDS011;11858;51.056;3.712;2023-04-15T02:02:07;2.30;;;2.20;;
23370;SDS011;11858;51.056;3.712;2023-04-15T02:04:32;2.40;;;2.30;;
23370;SDS011;11858;51.056;3.712;2023-04-15T02:06:58;2.20;;;2.10;;
23370;SDS011;11858;51.056;3.712;2023-04-15T02:09:24;1.92;;;1.83;;
23370;SDS011;11858;51.056;3.712;2023-04-15T02:11:50;2.40;;;2.30;;
23370;SDS011;11858;51.056;3.712;2023-04-15T02:14:17;1.92;;;1.85;;
23370;SDS011;11858;51.056;3.712;2023-04-15T02:16:43;2.00;;;1.90;;
23370;SDS011;11858;51.056;3.712;2023-04-15T02:19:09;2.00;;;1.90;;
23370;SDS011;11858;51.056;3.712;2023-04-15T02:21:35;1.75;;;1.75;;
23370;SDS011;11858;51.056;3.712;2023-04-15T02:24:00;2.38;;;2.30;;
23370;SDS011;11858;51.056;3.712;2023-04-15T02:26:26;1.40;;;1.40;;
23370;SDS011;11858;51.056;3.712;2023-04-15T02:28:52;1.70;;;1.70;;
23370;SDS011;11858;51.056;3.712;2023-04-15T02:31:18;1.50;;;1.50;;
23370;SDS011;11858;51.056;3.712;2023-04-15T02:33:45;1.92;;;1.75;;
23370;SDS011;11858;51.056;3.712;2023-04-15T02:36:11;1.60;;;1.60;;
23370;SDS011;11858;51.056;3.712;2023-04-15T02:38:37;1.88;;;1.77;;
23370;SDS011;11858;51.056;3.712;2023-04-15T02:41:06;1.60;;;1.60;;
23370;SDS011;11858;51.056;3.712;2023-04-15T02:43:32;1.45;;;1.45;;
23370;SDS011;11858;51.056;3.712;2023-04-15T02:45:58;2.20;;;2.10;;
23370;SDS011;11858;51.056;3.712;2023-04-15T02:48:24;1.63;;;1.63;;
23370;SDS011;11858;51.056;3.712;2023-04-15T02:50:50;1.85;;;1.75;;
23370;SDS011;11858;51.056;3.712;2023-04-15T02:53:15;1.50;;;1.48;;
23370;SDS011;11858;51.056;3.712;2023-04-15T02:55:41;1.48;;;1.48;;
23370;SDS011;11858;51.056;3.712;2023-04-15T02:58:07;1.38;;;1.38;;
23370;SDS011;11858;51.056;3.712;2023-04-15T03:00:33;1.48;;;1.48;;
23370;SDS011;11858;51.056;3.712;2023-04-15T03:03:01;2.00;;;1.90;;
23370;SDS011;11858;51.056;3.712;2023-04-15T03:05:28;1.50;;;1.50;;
23370;SDS011;11858;51.056;3.712;2023-04-15T03:07:53;1.55;;;1.55;;
23370;SDS011;11858;51.056;3.712;2023-04-15T03:10:20;1.60;;;1.60;;
23370;SDS011;11858;51.056;3.712;2023-04-15T03:12:46;1.60;;;1.60;;
23370;SDS011;11858;51.056;3.712;2023-04-15T03:15:12;1.50;;;1.50;;
23370;SDS011;11858;51.056;3.712;2023-04-15T03:17:37;1.90;;;1.83;;
23370;SDS011;11858;51.056;3.712;2023-04-15T03:20:06;1.50;;;1.50;;
23370;SDS011;11858;51.056;3.712;2023-04-15T03:22:32;1.40;;;1.40;;
23370;SDS011;11858;51.056;3.712;2023-04-15T03:24:58;1.50;;;1.50;;
23370;SDS011;11858;51.056;3.712;2023-04-15T03:27:24;1.50;;;1.50;;
23370;SDS011;11858;51.056;3.712;2023-04-15T03:29:50;1.30;;;1.30;;
23370;SDS011;11858;51.056;3.712;2023-04-15T03:32:16;1.20;;;1.20;;
23370;SDS011;11858;51.056;3.712;2023-04-15T03:34:42;1.30;;;1.30;;
23370;SDS011;11858;51.056;3.712;2023-04-15T03:37:08;1.20;;;1.20;;
23370;SDS011;11858;51.056;3.712;2023-04-15T03:39:34;1.27;;;1.27;;
23370;SDS011;11858;51.056;3.712;2023-04-15T03:42:00;1.10;;;1.10;;
23370;SDS011;11858;51.056;3.712;2023-04-15T03:44:26;1.10;;;1.10;;
23370;SDS011;11858;51.056;3.712;2023-04-15T03:46:51;1.20;;;1.20;;
23370;SDS011;11858;51.056;3.712;2023-04-15T03:49:18;1.00;;;1.00;;
23370;SDS011;11858;51.056;3.712;2023-04-15T03:51:44;1.52;;;1.50;;
23370;SDS011;11858;51.056;3.712;2023-04-15T03:54:10;0.80;;;0.80;;
23370;SDS011;11858;51.056;3.712;2023-04-15T03:56:38;2.30;;;1.35;;
23370;SDS011;11858;51.056;3.712;2023-04-15T03:59:04;0.70;;;0.70;;
23370;SDS011;11858;51.056;3.712;2023-04-15T04:01:30;0.65;;;0.65;;
23370;SDS011;11858;51.056;3.712;2023-04-15T04:03:56;0.70;;;0.70;;
23370;SDS011;11858;51.056;3.712;2023-04-15T04:06:21;0.80;;;0.80;;
23370;SDS011;11858;51.056;3.712;2023-04-15T04:08:47;1.05;;;1.05;;
23370;SDS011;11858;51.056;3.712;2023-04-15T04:11:13;0.60;;;0.60;;
23370;SDS011;11858;51.056;3.712;2023-04-15T04:13:39;0.60;;;0.60;;
23370;SDS011;11858;51.056;3.712;2023-04-15T04:16:05;0.50;;;0.50;;
23370;SDS011;11858;51.056;3.712;2023-04-15T04:18:31;0.60;;;0.60;;
23370;SDS011;11858;51.056;3.712;2023-04-15T04:20:57;0.60;;;0.60;;
23370;SDS011;11858;51.056;3.712;2023-04-15T04:23:24;0.40;;;0.40;;
23370;SDS011;11858;51.056;3.712;2023-04-15T04:25:50;0.68;;;0.68;;
23370;SDS011;11858;51.056;3.712;2023-04-15T04:28:16;0.55;;;0.55;;
23370;SDS011;11858;51.056;3.712;2023-04-15T04:30:42;8.57;;;1.70;;
23370;SDS011;11858;51.056;3.712;2023-04-15T04:33:08;0.50;;;0.50;;
23370;SDS011;11858;51.056;3.712;2023-04-15T04:35:34;0.50;;;0.50;;
23370;SDS011;11858;51.056;3.712;2023-04-15T04:38:02;0.60;;;0.60;;
23370;SDS011;11858;51.056;3.712;2023-04-15T04:40:28;0.60;;;0.60;;
23370;SDS011;11858;51.056;3.712;2023-04-15T04:42:54;0.80;;;0.80;;
23370;SDS011;11858;51.056;3.712;2023-04-15T04:45:19;0.60;;;0.60;;
23370;SDS011;11858;51.056;3.712;2023-04-15T04:47:45;0.90;;;0.90;;
23370;SDS011;11858;51.056;3.712;2023-04-15T04:50:11;0.70;;;0.70;;
23370;SDS011;11858;51.056;3.712;2023-04-15T04:52:37;0.60;;;0.60;;
23370;SDS011;11858;51.056;3.712;2023-04-15T04:55:03;0.68;;;0.68;;
23370;SDS011;11858;51.056;3.712;2023-04-15T04:57:29;0.63;;;0.63;;
23370;SDS011;11858;51.056;3.712;2023-04-15T04:59:55;0.77;;;0.77;;
23370;SDS011;11858;51.056;3.712;2023-04-15T05:02:21;0.60;;;0.60;;
23370;SDS011;11858;51.056;3.712;2023-04-15T05:04:47;0.63;;;0.63;;
23370;SDS011;11858;51.056;3.712;2023-04-15T05:07:14;0.70;;;0.70;;
23370;SDS011;11858;51.056;3.712;2023-04-15T05:09:40;1.05;;;1.05;;
23370;SDS011;11858;51.056;3.712;2023-04-15T05:12:06;0.70;;;0.70;;
23370;SDS011;11858;51.056;3.712;2023-04-15T05:14:33;0.50;;;0.50;;
23370;SDS011;11858;51.056;3.712;2023-04-15T05:16:59;0.60;;;0.60;;
23370;SDS011;11858;51.056;3.712;2023-04-15T05:19:24;0.70;;;0.70;;
23370;SDS011;11858;51.056;3.712;2023-04-15T05:21:50;0.57;;;0.57;;
23370;SDS011;11858;51.056;3.712;2023-04-15T05:24:16;0.50;;;0.50;;
23370;SDS011;11858;51.056;3.712;2023-04-15T05:26:42;0.57;;;0.57;;
23370;SDS011;11858;51.056;3.712;2023-04-15T05:29:08;0.60;;;0.60;;
23370;SDS011;11858;51.056;3.712;2023-04-15T05:31:33;0.70;;;0.70;;
23370;SDS011;11858;51.056;3.712;2023-04-15T05:33:59;0.70;;;0.70;;
23370;SDS011;11858;51.056;3.712;2023-04-15T05:36:25;0.80;;;0.80;;
23370;SDS011;11858;51.056;3.712;2023-04-15T05:38:52;0.70;;;0.70;;
23370;SDS011;11858;51.056;3.712;2023-04-15T05:41:18;0.70;;;0.70;;
23370;SDS011;11858;51.056;3.712;2023-04-15T05:43:44;0.80;;;0.80;;
23370;SDS011;11858;51.056;3.712;2023-04-15T05:46:10;0.70;;;0.70;;
23370;SDS011;11858;51.056;3.712;2023-04-15T05:48:36;1.10;;;1.10;;
23370;SDS011;11858;51.056;3.712;2023-04-15T05:51:02;0.82;;;0.82;;
23370;SDS011;11858;51.056;3.712;2023-04-15T05:53:28;0.85;;;0.85;;
23370;SDS011;11858;51.056;3.712;2023-04-15T05:55:54;0.70;;;0.70;;
23370;SDS011;11858;51.056;3.712;2023-04-15T05:58:20;1.20;;;1.20;;
23370;SDS011;11858;51.056;3.712;2023-04-15T06:00:45;0.80;;;0.80;;
23370;SDS011;11858;51.056;3.712;2023-04-15T06:03:11;0.60;;;0.60;;
23370;SDS011;11858;51.056;3.712;2023-04-15T06:05:37;0.80;;;0.80;;
23370;SDS011;11858;51.056;3.712;2023-04-15T06:08:03;0.77;;;0.77;;
23370;SDS011;11858;51.056;3.712;2023-04-15T06:10:29;0.98;;;0.90;;
23370;SDS011;11858;51.056;3.712;2023-04-15T06:12:55;1.08;;;1.08;;
23370;SDS011;11858;51.056;3.712;2023-04-15T06:15:21;1.55;;;1.08;;
23370;SDS011;11858;51.056;3.712;2023-04-15T06:17:47;0.80;;;0.80;;
23370;SDS011;11858;51.056;3.712;2023-04-15T06:20:12;0.70;;;0.70;;
23370;SDS011;11858;51.056;3.712;2023-04-15T06:22:38;1.58;;;1.13;;
23370;SDS011;11858;51.056;3.712;2023-04-15T06:25:05;1.00;;;1.00;;
23370;SDS011;11858;51.056;3.712;2023-04-15T06:27:32;2.00;;;1.90;;
23370;SDS011;11858;51.056;3.712;2023-04-15T06:29:58;1.00;;;1.00;;
23370;SDS011;11858;51.056;3.712;2023-04-15T06:32:24;1.95;;;1.85;;
23370;SDS011;11858;51.056;3.712;2023-04-15T06:34:50;1.50;;;1.50;;
23370;SDS011;11858;51.056;3.712;2023-04-15T06:37:16;1.83;;;1.73;;
23370;SDS011;11858;51.056;3.712;2023-04-15T06:39:42;1.50;;;1.50;;
23370;SDS011;11858;51.056;3.712;2023-04-15T06:42:09;3.90;;;3.05;;
23370;SDS011;11858;51.056;3.712;2023-04-15T06:44:35;1.67;;;1.67;;
23370;SDS011;11858;51.056;3.712;2023-04-15T06:47:01;2.00;;;1.90;;
23370;SDS011;11858;51.056;3.712;2023-04-15T06:49:27;2.00;;;1.90;;
23370;SDS011;11858;51.056;3.712;2023-04-15T06:51:53;2.22;;;2.13;;
23370;SDS011;11858;51.056;3.712;2023-04-15T06:54:19;2.15;;;2.05;;
23370;SDS011;11858;51.056;3.712;2023-04-15T06:56:45;2.28;;;2.17;;
23370;SDS011;11858;51.056;3.712;2023-04-15T06:59:12;2.67;;;2.47;;
23370;SDS011;11858;51.056;3.712;2023-04-15T07:01:39;2.40;;;2.30;;
23370;SDS011;11858;51.056;3.712;2023-04-15T07:04:06;2.40;;;2.30;;
23370;SDS011;11858;51.056;3.712;2023-04-15T07:06:31;3.47;;;3.28;;
23370;SDS011;11858;51.056;3.712;2023-04-15T07:08:57;4.38;;;4.18;;
23370;SDS011;11858;51.056;3.712;2023-04-15T07:11:26;4.25;;;4.05;;
23370;SDS011;11858;51.056;3.712;2023-04-15T07:13:52;5.50;;;5.20;;
23370;SDS011;11858;51.056;3.712;2023-04-15T07:16:18;5.07;;;4.88;;
23370;SDS011;11858;51.056;3.712;2023-04-15T07:18:43;5.20;;;5.00;;
23370;SDS011;11858;51.056;3.712;2023-04-15T07:21:09;6.90;;;6.50;;
23370;SDS011;11858;51.056;3.712;2023-04-15T07:23:35;6.88;;;6.47;;
23370;SDS011;11858;51.056;3.712;2023-04-15T07:26:01;5.95;;;5.65;;
23370;SDS011;11858;51.056;3.712;2023-04-15T07:28:27;8.40;;;8.00;;
23370;SDS011;11858;51.056;3.712;2023-04-15T07:30:53;7.80;;;7.40;;
23370;SDS011;11858;51.056;3.712;2023-04-15T07:33:21;8.50;;;8.10;;
23370;SDS011;11858;51.056;3.712;2023-04-15T07:35:47;10.30;;;9.80;;
23370;SDS011;11858;51.056;3.712;2023-04-15T07:38:13;11.98;;;11.38;;
23370;SDS011;11858;51.056;3.712;2023-04-15T07:40:38;13.80;;;13.00;;
23370;SDS011;11858;51.056;3.712;2023-04-15T07:43:04;14.85;;;13.93;;
23370;SDS011;11858;51.056;3.712;2023-04-15T07:45:31;16.63;;;15.55;;
23370;SDS011;11858;51.056;3.712;2023-04-15T07:47:56;14.32;;;13.52;;
23370;SDS011;11858;51.056;3.712;2023-04-15T07:50:22;14.82;;;13.98;;
23370;SDS011;11858;51.056;3.712;2023-04-15T07:52:49;16.48;;;15.18;;
23370;SDS011;11858;51.056;3.712;2023-04-15T07:55:15;16.83;;;15.20;;
23370;SDS011;11858;51.056;3.712;2023-04-15T07:57:44;15.48;;;14.57;;
23370;SDS011;11858;51.056;3.712;2023-04-15T08:00:11;14.43;;;13.63;;
23370;SDS011;11858;51.056;3.712;2023-04-15T08:02:37;14.50;;;13.70;;
23370;SDS011;11858;51.056;3.712;2023-04-15T08:05:03;14.93;;;14.02;;
23370;SDS011;11858;51.056;3.712;2023-04-15T08:07:30;17.10;;;16.00;;
23370;SDS011;11858;51.056;3.712;2023-04-15T08:09:56;16.05;;;15.15;;
23370;SDS011;11858;51.056;3.712;2023-04-15T08:12:22;20.05;;;18.73;;
23370;SDS011;11858;51.056;3.712;2023-04-15T08:14:49;17.33;;;16.23;;
23370;SDS011;11858;51.056;3.712;2023-04-15T08:17:15;16.88;;;15.88;;
23370;SDS011;11858;51.056;3.712;2023-04-15T08:19:41;27.45;;;25.27;;
23370;SDS011;11858;51.056;3.712;2023-04-15T08:22:07;16.45;;;15.50;;
23370;SDS011;11858;51.056;3.712;2023-04-15T08:24:33;18.30;;;17.02;;
23370;SDS011;11858;51.056;3.712;2023-04-15T08:26:59;17.50;;;16.50;;
23370;SDS011;11858;51.056;3.712;2023-04-15T08:29:25;18.30;;;17.17;;
23370;SDS011;11858;51.056;3.712;2023-04-15T08:31:52;17.77;;;16.67;;
23370;SDS011;11858;51.056;3.712;2023-04-15T08:34:18;18.52;;;17.27;;
23370;SDS011;11858;51.056;3.712;2023-04-15T08:36:44;20.27;;;18.55;;
23370;SDS011;11858;51.056;3.712;2023-04-15T08:39:10;19.20;;;18.00;;
23370;SDS011;11858;51.056;3.712;2023-04-15T08:41:41;17.95;;;16.85;;
23370;SDS011;11858;51.056;3.712;2023-04-15T08:44:13;18.85;;;17.55;;
23370;SDS011;11858;51.056;3.712;2023-04-15T08:46:40;17.95;;;16.85;;
23370;SDS011;11858;51.056;3.712;2023-04-15T08:49:09;20.20;;;18.70;;
23370;SDS011;11858;51.056;3.712;2023-04-15T08:51:41;22.17;;;20.45;;
23370;SDS011;11858;51.056;3.712;2023-04-15T08:54:08;19.00;;;17.80;;
23370;SDS011;11858;51.056;3.712;2023-04-15T08:56:35;19.50;;;18.25;;
23370;SDS011;11858;51.056;3.712;2023-04-15T08:59:03;21.67;;;20.17;;
23370;SDS011;11858;51.056;3.712;2023-04-15T09:01:30;22.05;;;20.23;;
23370;SDS011;11858;51.056;3.712;2023-04-15T09:03:56;24.13;;;21.65;;
23370;SDS011;11858;51.056;3.712;2023-04-15T09:06:24;20.88;;;19.40;;
23370;SDS011;11858;51.056;3.712;2023-04-15T09:08:50;20.83;;;19.40;;
23370;SDS011;11858;51.056;3.712;2023-04-15T09:11:16;20.00;;;18.70;;
23370;SDS011;11858;51.056;3.712;2023-04-15T09:13:42;19.38;;;18.17;;
23370;SDS011;11858;51.056;3.712;2023-04-15T09:16:08;19.88;;;18.48;;
23370;SDS011;11858;51.056;3.712;2023-04-15T09:18:34;19.42;;;18.23;;
23370;SDS011;11858;51.056;3.712;2023-04-15T09:23:33;19.10;;;17.80;;
23370;SDS011;11858;51.056;3.712;2023-04-15T09:26:00;19.63;;;18.27;;
23370;SDS011;11858;51.056;3.712;2023-04-15T09:28:27;20.27;;;18.90;;
23370;SDS011;11858;51.056;3.712;2023-04-15T09:30:59;19.98;;;18.75;;
23370;SDS011;11858;51.056;3.712;2023-04-15T09:33:27;21.38;;;19.77;;
23370;SDS011;11858;51.056;3.712;2023-04-15T09:35:58;20.13;;;18.85;;
23370;SDS011;11858;51.056;3.712;2023-04-15T09:38:28;19.48;;;18.27;;
23370;SDS011;11858;51.056;3.712;2023-04-15T09:40:55;20.45;;;19.10;;
23370;SDS011;11858;51.056;3.712;2023-04-15T09:43:22;22.77;;;20.45;;
23370;SDS011;11858;51.056;3.712;2023-04-15T09:46:01;20.15;;;18.88;;
23370;SDS011;11858;51.056;3.712;2023-04-15T09:48:27;19.85;;;18.55;;
23370;SDS011;11858;51.056;3.712;2023-04-15T09:50:58;20.05;;;18.75;;
23370;SDS011;11858;51.056;3.712;2023-04-15T09:53:25;20.13;;;18.73;;
23370;SDS011;11858;51.056;3.712;2023-04-15T09:55:55;20.15;;;18.85;;
23370;SDS011;11858;51.056;3.712;2023-04-15T09:58:26;19.63;;;18.23;;
23370;SDS011;11858;51.056;3.712;2023-04-15T10:00:57;20.10;;;18.67;;
23370;SDS011;11858;51.056;3.712;2023-04-15T10:03:29;18.02;;;16.92;;
23370;SDS011;11858;51.056;3.712;2023-04-15T10:06:02;18.90;;;17.50;;
23370;SDS011;11858;51.056;3.712;2023-04-15T10:08:30;20.50;;;18.92;;
23370;SDS011;11858;51.056;3.712;2023-04-15T10:10:57;20.35;;;18.80;;
23370;SDS011;11858;51.056;3.712;2023-04-15T10:13:25;18.10;;;17.00;;
23370;SDS011;11858;51.056;3.712;2023-04-15T10:16:00;18.05;;;16.85;;
23370;SDS011;11858;51.056;3.712;2023-04-15T10:18:30;18.70;;;17.50;;
23370;SDS011;11858;51.056;3.712;2023-04-15T10:21:19;17.92;;;16.73;;
23370;SDS011;11858;51.056;3.712;2023-04-15T10:23:46;18.70;;;17.40;;
23370;SDS011;11858;51.056;3.712;2023-04-15T10:26:12;18.90;;;17.50;;
23370;SDS011;11858;51.056;3.712;2023-04-15T10:28:39;19.73;;;18.10;;
23370;SDS011;11858;51.056;3.712;2023-04-15T10:31:06;17.67;;;16.58;;
23370;SDS011;11858;51.056;3.712;2023-04-15T10:33:32;18.00;;;16.80;;
23370;SDS011;11858;51.056;3.712;2023-04-15T10:35:59;18.95;;;17.63;;
23370;SDS011;11858;51.056;3.712;2023-04-15T10:43:55;17.95;;;16.75;;
23370;SDS011;11858;51.056;3.712;2023-04-15T10:48:04;17.17;;;16.08;;
23370;SDS011;11858;51.056;3.712;2023-04-15T10:50:32;17.40;;;16.23;;
23370;SDS011;11858;51.056;3.712;2023-04-15T10:52:58;18.15;;;16.95;;
23370;SDS011;11858;51.056;3.712;2023-04-15T10:55:30;18.50;;;17.20;;
23370;SDS011;11858;51.056;3.712;2023-04-15T10:57:58;18.20;;;17.00;;
23370;SDS011;11858;51.056;3.712;2023-04-15T11:00:29;17.90;;;16.70;;
23370;SDS011;11858;51.056;3.712;2023-04-15T11:03:05;17.73;;;16.52;;
23370;SDS011;11858;51.056;3.712;2023-04-15T11:05:49;18.13;;;16.92;;
23370;SDS011;11858;51.056;3.712;2023-04-15T11:08:16;18.20;;;16.90;;
23370;SDS011;11858;51.056;3.712;2023-04-15T11:15:37;18.67;;;17.48;;
23370;SDS011;11858;51.056;3.712;2023-04-15T11:20:51;19.40;;;18.05;;
23370;SDS011;11858;51.056;3.712;2023-04-15T11:23:40;18.55;;;17.10;;
23370;SDS011;11858;51.056;3.712;2023-04-15T11:26:13;17.27;;;16.17;;
23370;SDS011;11858;51.056;3.712;2023-04-15T11:28:40;17.30;;;16.17;;
23370;SDS011;11858;51.056;3.712;2023-04-15T11:31:10;17.73;;;16.52;;
23370;SDS011;11858;51.056;3.712;2023-04-15T11:33:37;17.70;;;16.50;;
23370;SDS011;11858;51.056;3.712;2023-04-15T11:36:09;18.00;;;16.80;;
23370;SDS011;11858;51.056;3.712;2023-04-15T11:38:34;18.10;;;16.90;;
23370;SDS011;11858;51.056;3.712;2023-04-15T11:41:01;17.40;;;16.30;;
23370;SDS011;11858;51.056;3.712;2023-04-15T11:43:27;20.05;;;18.65;;
23370;SDS011;11858;51.056;3.712;2023-04-15T11:45:57;18.88;;;17.48;;
23370;SDS011;11858;51.056;3.712;2023-04-15T11:48:34;17.90;;;16.70;;
23370;SDS011;11858;51.056;3.712;2023-04-15T11:53:49;18.10;;;16.90;;
23370;SDS011;11858;51.056;3.712;2023-04-15T11:56:20;18.10;;;16.90;;
23370;SDS011;11858;51.056;3.712;2023-04-15T11:58:50;18.10;;;16.90;;
23370;SDS011;11858;51.056;3.712;2023-04-15T12:01:18;18.92;;;17.52;;
23370;SDS011;11858;51.056;3.712;2023-04-15T12:03:44;19.00;;;17.70;;
23370;SDS011;11858;51.056;3.712;2023-04-15T12:13:55;17.85;;;16.65;;
23370;SDS011;11858;51.056;3.712;2023-04-15T12:16:24;17.70;;;16.50;;
23370;SDS011;11858;51.056;3.712;2023-04-15T12:18:52;18.38;;;17.17;;
23370;SDS011;11858;51.056;3.712;2023-04-15T12:21:24;17.63;;;16.42;;
23370;SDS011;11858;51.056;3.712;2023-04-15T12:23:52;18.73;;;17.42;;
23370;SDS011;11858;51.056;3.712;2023-04-15T12:26:24;17.50;;;16.40;;
23370;SDS011;11858;51.056;3.712;2023-04-15T12:28:59;18.05;;;16.85;;
23370;SDS011;11858;51.056;3.712;2023-04-15T12:31:35;17.80;;;16.60;;
23370;SDS011;11858;51.056;3.712;2023-04-15T12:34:10;19.05;;;17.75;;
23370;SDS011;11858;51.056;3.712;2023-04-15T12:36:36;19.17;;;17.58;;
23370;SDS011;11858;51.056;3.712;2023-04-15T12:39:02;17.38;;;16.17;;
23370;SDS011;11858;51.056;3.712;2023-04-15T12:41:28;17.58;;;16.38;;
23370;SDS011;11858;51.056;3.712;2023-04-15T12:43:54;17.77;;;16.58;;
23370;SDS011;11858;51.056;3.712;2023-04-15T12:46:20;17.95;;;16.75;;
23370;SDS011;11858;51.056;3.712;2023-04-15T12:48:46;17.70;;;16.50;;
23370;SDS011;11858;51.056;3.712;2023-04-15T12:51:12;17.75;;;16.55;;
23370;SDS011;11858;51.056;3.712;2023-04-15T12:53:38;19.27;;;17.67;;
23370;SDS011;11858;51.056;3.712;2023-04-15T12:56:04;17.58;;;16.40;;
23370;SDS011;11858;51.056;3.712;2023-04-15T12:58:30;18.30;;;17.08;;
23370;SDS011;11858;51.056;3.712;2023-04-15T13:00:56;17.67;;;16.58;;
23370;SDS011;11858;51.056;3.712;2023-04-15T13:03:22;17.02;;;15.93;;
23370;SDS011;11858;51.056;3.712;2023-04-15T13:05:48;17.55;;;16.35;;
23370;SDS011;11858;51.056;3.712;2023-04-15T13:08:13;18.25;;;16.90;;
23370;SDS011;11858;51.056;3.712;2023-04-15T13:10:39;18.10;;;16.50;;
23370;SDS011;11858;51.056;3.712;2023-04-15T13:13:06;17.35;;;16.23;;
23370;SDS011;11858;51.056;3.712;2023-04-15T13:15:32;17.55;;;16.35;;
23370;SDS011;11858;51.056;3.712;2023-04-15T13:17:58;17.30;;;16.20;;
23370;SDS011;11858;51.056;3.712;2023-04-15T13:20:24;17.63;;;16.42;;
23370;SDS011;11858;51.056;3.712;2023-04-15T13:22:51;17.70;;;16.50;;
23370;SDS011;11858;51.056;3.712;2023-04-15T13:25:22;17.95;;;16.75;;
23370;SDS011;11858;51.056;3.712;2023-04-15T13:27:48;18.73;;;17.33;;
23370;SDS011;11858;51.056;3.712;2023-04-15T13:30:14;18.17;;;16.98;;
23370;SDS011;11858;51.056;3.712;2023-04-15T13:32:40;17.98;;;16.77;;
23370;SDS011;11858;51.056;3.712;2023-04-15T13:35:05;18.23;;;17.02;;
23370;SDS011;11858;51.056;3.712;2023-04-15T13:37:31;18.20;;;17.00;;
23370;SDS011;11858;51.056;3.712;2023-04-15T13:39:57;18.30;;;17.00;;
23370;SDS011;11858;51.056;3.712;2023-04-15T13:42:23;17.77;;;16.67;;
23370;SDS011;11858;51.056;3.712;2023-04-15T13:44:49;18.38;;;17.08;;
23370;SDS011;11858;51.056;3.712;2023-04-15T13:47:15;18.27;;;17.02;;
23370;SDS011;11858;51.056;3.712;2023-04-15T13:49:43;18.52;;;17.33;;
23370;SDS011;11858;51.056;3.712;2023-04-15T13:52:08;18.95;;;17.48;;
23370;SDS011;11858;51.056;3.712;2023-04-15T13:54:35;17.85;;;16.65;;
23370;SDS011;11858;51.056;3.712;2023-04-15T13:57:00;18.88;;;17.58;;
23370;SDS011;11858;51.056;3.712;2023-04-15T13:59:26;18.80;;;17.50;;
23370;SDS011;11858;51.056;3.712;2023-04-15T14:01:52;18.15;;;16.95;;
23370;SDS011;11858;51.056;3.712;2023-04-15T14:04:18;20.90;;;19.50;;
23370;SDS011;11858;51.056;3.712;2023-04-15T14:06:43;20.63;;;19.27;;
23370;SDS011;11858;51.056;3.712;2023-04-15T14:09:09;21.25;;;19.85;;
23370;SDS011;11858;51.056;3.712;2023-04-15T14:11:36;21.13;;;19.73;;
23370;SDS011;11858;51.056;3.712;2023-04-15T14:14:03;20.70;;;19.35;;
23370;SDS011;11858;51.056;3.712;2023-04-15T14:16:30;21.08;;;19.77;;
23370;SDS011;11858;51.056;3.712;2023-04-15T14:18:57;21.90;;;20.50;;
23370;SDS011;11858;51.056;3.712;2023-04-15T14:21:23;21.20;;;19.80;;
23370;SDS011;11858;51.056;3.712;2023-04-15T14:23:48;21.20;;;19.80;;
23370;SDS011;11858;51.056;3.712;2023-04-15T14:26:14;21.00;;;19.60;;
23370;SDS011;11858;51.056;3.712;2023-04-15T14:28:40;21.98;;;20.48;;
23370;SDS011;11858;51.056;3.712;2023-04-15T14:31:06;20.98;;;19.67;;
23370;SDS011;11858;51.056;3.712;2023-04-15T14:33:32;21.92;;;20.52;;
23370;SDS011;11858;51.056;3.712;2023-04-15T14:35:58;22.40;;;20.90;;
23370;SDS011;11858;51.056;3.712;2023-04-15T14:38:24;20.70;;;19.40;;
23370;SDS011;11858;51.056;3.712;2023-04-15T14:40:49;21.10;;;19.80;;
23370;SDS011;11858;51.056;3.712;2023-04-15T14:43:15;20.75;;;19.45;;
23370;SDS011;11858;51.056;3.712;2023-04-15T14:45:41;22.75;;;21.15;;
23370;SDS011;11858;51.056;3.712;2023-04-15T14:48:08;21.67;;;20.30;;
23370;SDS011;11858;51.056;3.712;2023-04-15T14:50:34;21.80;;;20.30;;
23370;SDS011;11858;51.056;3.712;2023-04-15T14:53:00;20.70;;;19.40;;
23370;SDS011;11858;51.056;3.712;2023-04-15T14:55:26;20.55;;;19.25;;
23370;SDS011;11858;51.056;3.712;2023-04-15T14:57:51;21.75;;;20.35;;